createdAt,value
2022-11-03T00:00:59.237Z,0
2022-11-03T00:03:59.312Z,0
2022-11-03T00:06:58.919Z,0
2022-11-03T00:09:59.272Z,0
2022-11-03T00:12:59.322Z,0
2022-11-03T00:15:59.144Z,0
2022-11-03T00:18:58.413Z,0
2022-11-03T00:21:58.260Z,0
2022-11-03T00:24:58.866Z,0
2022-11-03T00:27:58.566Z,0
2022-11-03T00:31:14.266Z,0
2022-11-03T00:33:58.325Z,0
2022-11-03T00:36:58.711Z,0
2022-11-03T00:39:58.908Z,0
2022-11-03T00:42:58.909Z,0.3333333333333333
2022-11-03T00:45:58.599Z,0
2022-11-03T00:48:58.687Z,0
2022-11-03T00:51:58.699Z,0
2022-11-03T00:54:58.731Z,0
2022-11-03T00:57:59.029Z,0
2022-11-03T01:00:59.315Z,0
2022-11-03T01:03:58.680Z,0
2022-11-03T01:06:58.475Z,0
2022-11-03T01:09:58.528Z,0
2022-11-03T01:12:58.438Z,0
2022-11-03T01:15:58.500Z,0
2022-11-03T01:18:58.393Z,0
2022-11-03T01:21:58.564Z,0
2022-11-03T01:24:58.183Z,0
2022-11-03T01:27:58.830Z,0
2022-11-03T01:30:58.932Z,0
2022-11-03T01:33:59.148Z,0
2022-11-03T01:36:58.578Z,0
2022-11-03T01:39:57.996Z,0
2022-11-03T01:42:58.999Z,0
2022-11-03T01:45:59.315Z,0
2022-11-03T01:48:58.852Z,0
2022-11-03T01:51:58.848Z,0
2022-11-03T01:54:59.188Z,0
2022-11-03T01:57:58.811Z,0
2022-11-03T02:00:58.844Z,0
2022-11-03T02:03:58.902Z,0
2022-11-03T02:06:59.121Z,0
2022-11-03T02:09:58.906Z,0
2022-11-03T02:12:59.079Z,0
2022-11-03T02:15:59.370Z,0.3333333333333333
2022-11-03T02:18:58.558Z,0
2022-11-03T02:21:59.369Z,0
2022-11-03T02:24:59.325Z,0
2022-11-03T02:27:59.193Z,0
2022-11-03T02:30:59.630Z,0
2022-11-03T02:33:59.181Z,0
2022-11-03T02:36:58.949Z,0
2022-11-03T02:39:59.132Z,0
2022-11-03T02:42:59.036Z,0
2022-11-03T02:45:58.954Z,0
2022-11-03T02:48:58.894Z,0
2022-11-03T02:51:58.932Z,0
2022-11-03T02:54:58.878Z,0
2022-11-03T02:57:58.884Z,0
2022-11-03T03:00:59.038Z,0
2022-11-03T03:03:58.835Z,0
2022-11-03T03:06:58.983Z,0
2022-11-03T03:09:58.863Z,0
2022-11-03T03:12:58.611Z,0
2022-11-03T03:15:58.594Z,0
2022-11-03T03:18:58.772Z,0
2022-11-03T03:21:59.265Z,0
2022-11-03T03:24:59.301Z,0
2022-11-03T03:27:58.630Z,0
2022-11-03T03:30:59.561Z,0
2022-11-03T03:34:04.488Z,0
2022-11-03T03:36:59.506Z,0
2022-11-03T03:39:58.448Z,0
2022-11-03T03:42:58.358Z,0
2022-11-03T03:45:59.276Z,0
2022-11-03T03:48:59.254Z,0
2022-11-03T03:51:58.770Z,0
2022-11-03T03:54:59.259Z,0
2022-11-03T03:58:00.444Z,0
2022-11-03T04:00:59.008Z,0.3333333333333333
2022-11-03T04:03:58.543Z,0
2022-11-03T04:06:58.965Z,0
2022-11-03T04:09:59.015Z,0
2022-11-03T04:12:58.249Z,0
2022-11-03T04:15:58.952Z,0
2022-11-03T04:18:58.681Z,0
2022-11-03T04:21:58.807Z,0
2022-11-03T04:24:59.110Z,0
2022-11-03T04:27:58.841Z,0.3333333333333333
2022-11-03T04:30:59.047Z,0
2022-11-03T04:33:59.433Z,0
2022-11-03T04:36:59.432Z,0
2022-11-03T04:39:58.682Z,0
2022-11-03T04:42:58.557Z,0
2022-11-03T04:45:59.422Z,0
2022-11-03T04:48:59.221Z,0
2022-11-03T04:51:58.284Z,0
2022-11-03T04:54:59.437Z,0
2022-11-03T04:57:58.739Z,0
2022-11-03T05:01:00.113Z,0
2022-11-03T05:03:59.348Z,0
2022-11-03T05:06:58.128Z,0
2022-11-03T05:09:59.265Z,0
2022-11-03T05:12:58.930Z,0
2022-11-03T05:15:59.140Z,0
2022-11-03T05:18:59.185Z,0
2022-11-03T05:21:59.141Z,0
2022-11-03T05:24:59.109Z,0
2022-11-03T05:27:58.949Z,0
2022-11-03T05:30:59.537Z,0
2022-11-03T05:33:58.559Z,0
2022-11-03T05:36:58.544Z,0
2022-11-03T05:39:58.789Z,0
2022-11-03T05:42:59.610Z,0
2022-11-03T05:45:58.786Z,0
2022-11-03T05:48:58.969Z,0.3333333333333333
2022-11-03T05:51:59.651Z,1
2022-11-03T05:54:59.584Z,3.3333333333333335
2022-11-03T05:57:59.376Z,4.333333333333333
2022-11-03T06:00:59.515Z,6.666666666666667
2022-11-03T06:03:59.448Z,11.666666666666666
2022-11-03T06:06:59.355Z,27.666666666666668
2022-11-03T06:09:59.385Z,36
2022-11-03T06:12:58.757Z,36
2022-11-03T06:15:59.638Z,35.333333333333336
2022-11-03T06:18:58.414Z,42.333333333333336
2022-11-03T06:21:59.205Z,49
2022-11-03T06:24:59.045Z,55
2022-11-03T06:27:59.124Z,66.66666666666667
2022-11-03T06:30:58.448Z,82.33333333333333
2022-11-03T06:33:59.187Z,97
2022-11-03T06:36:58.978Z,113
2022-11-03T06:39:59.605Z,129.33333333333334
2022-11-03T06:42:58.771Z,146
2022-11-03T06:45:59.016Z,159.66666666666666
2022-11-03T06:48:58.812Z,167.66666666666666
2022-11-03T06:51:58.179Z,173
2022-11-03T06:54:58.714Z,185
2022-11-03T06:57:58.578Z,185.33333333333334
2022-11-03T07:01:03.299Z,191.33333333333334
2022-11-03T07:03:59.130Z,197.33333333333334
2022-11-03T07:06:58.467Z,204.66666666666666
2022-11-03T07:09:59.538Z,202.33333333333334
2022-11-03T07:13:04.348Z,214
2022-11-03T07:15:58.683Z,227.66666666666666
2022-11-03T07:18:58.561Z,239
2022-11-03T07:21:58.644Z,242.33333333333334
2022-11-03T07:24:58.355Z,244
2022-11-03T07:27:59.199Z,241.33333333333334
2022-11-03T07:30:59.203Z,253
2022-11-03T07:33:59.214Z,263.3333333333333
2022-11-03T07:36:58.703Z,300.6666666666667
2022-11-03T07:39:59.100Z,287
2022-11-03T07:42:59.013Z,348.6666666666667
2022-11-03T07:45:59.539Z,340.6666666666667
2022-11-03T07:48:58.971Z,341.3333333333333
2022-11-03T07:51:58.995Z,335.3333333333333
2022-11-03T07:54:59.207Z,324.6666666666667
2022-11-03T07:57:58.354Z,327.3333333333333
2022-11-03T08:00:59.040Z,340
2022-11-03T08:03:58.468Z,353
2022-11-03T08:06:59.270Z,340.6666666666667
2022-11-03T08:09:58.730Z,369.3333333333333
2022-11-03T08:12:58.682Z,374
2022-11-03T08:15:58.475Z,385
2022-11-03T08:18:59.100Z,390
2022-11-03T08:21:58.527Z,451
2022-11-03T08:24:59.074Z,466.3333333333333
2022-11-03T08:27:59.435Z,488.3333333333333
2022-11-03T08:31:01.948Z,509
2022-11-03T08:33:59.103Z,520.6666666666666
2022-11-03T08:36:59.251Z,510.6666666666667
2022-11-03T08:39:59.158Z,533.6666666666666
2022-11-03T08:42:58.292Z,527
2022-11-03T08:46:08.147Z,534.3333333333334
2022-11-03T08:48:58.870Z,551
2022-11-03T08:51:58.563Z,573.6666666666666
2022-11-03T08:54:59.343Z,554
2022-11-03T08:57:59.066Z,556
2022-11-03T09:00:59.065Z,564.6666666666666
2022-11-03T09:03:59.144Z,567
2022-11-03T09:06:58.481Z,564.3333333333334
2022-11-03T09:10:24.743Z,579.3333333333334
2022-11-03T09:12:59.100Z,587.3333333333334
2022-11-03T09:15:58.835Z,570.6666666666666
2022-11-03T09:18:58.905Z,571.3333333333334
2022-11-03T09:21:58.665Z,555.3333333333334
2022-11-03T09:24:58.882Z,543.3333333333334
2022-11-03T09:27:59.486Z,564
2022-11-03T09:30:58.597Z,588.6666666666666
2022-11-03T09:33:59.535Z,627.3333333333334
2022-11-03T09:36:58.390Z,653.6666666666666
2022-11-03T09:39:58.365Z,653.6666666666666
2022-11-03T09:42:58.461Z,626
2022-11-03T09:45:59.227Z,584
2022-11-03T09:48:58.797Z,578.3333333333334
2022-11-03T09:51:58.496Z,524.6666666666666
2022-11-03T09:54:59.100Z,499.6666666666667
2022-11-03T09:57:58.637Z,497.6666666666667
2022-11-03T10:00:59.231Z,506
2022-11-03T10:03:59.257Z,518
2022-11-03T10:06:58.363Z,518.3333333333334
2022-11-03T10:09:58.743Z,521.6666666666666
2022-11-03T10:12:59.143Z,482
2022-11-03T10:15:58.988Z,505.6666666666667
2022-11-03T10:18:58.972Z,498
2022-11-03T10:21:59.027Z,524
2022-11-03T10:24:59.153Z,537.6666666666666
2022-11-03T10:27:59.523Z,579.6666666666666
2022-11-03T10:31:11.815Z,651.6666666666666
2022-11-03T10:33:58.786Z,707
2022-11-03T10:36:58.020Z,750.6666666666666
2022-11-03T10:39:58.832Z,802.6666666666666
2022-11-03T10:42:59.143Z,803.6666666666666
2022-11-03T10:45:58.780Z,783
2022-11-03T10:48:58.581Z,770.6666666666666
2022-11-03T10:51:59.066Z,758.6666666666666
2022-11-03T10:54:58.767Z,731.3333333333334
2022-11-03T10:57:58.605Z,725
2022-11-03T11:00:59.605Z,718
2022-11-03T11:04:25.397Z,712.3333333333334
2022-11-03T11:06:59.126Z,730.6666666666666
2022-11-03T11:09:59.141Z,725.3333333333334
2022-11-03T11:12:58.192Z,720.3333333333334
2022-11-03T11:15:59.071Z,714
2022-11-03T11:18:58.573Z,705.6666666666666
2022-11-03T11:21:58.278Z,689.6666666666666
2022-11-03T11:24:59.063Z,691
2022-11-03T11:27:59.011Z,679.3333333333334
2022-11-03T11:30:58.813Z,650.3333333333334
2022-11-03T11:33:58.827Z,635.3333333333334
2022-11-03T11:36:58.522Z,633.3333333333334
2022-11-03T11:39:58.582Z,635.6666666666666
2022-11-03T11:42:59.069Z,610.3333333333334
2022-11-03T11:45:59.411Z,595.6666666666666
2022-11-03T11:48:58.727Z,590.6666666666666
2022-11-03T11:51:58.647Z,583.3333333333334
2022-11-03T11:54:59.563Z,574
2022-11-03T11:57:58.503Z,570.6666666666666
2022-11-03T12:00:58.418Z,565.6666666666666
2022-11-03T12:03:59.448Z,572
2022-11-03T12:06:58.642Z,573
2022-11-03T12:09:59.246Z,556.3333333333334
2022-11-03T12:12:58.971Z,547.6666666666666
2022-11-03T12:15:58.719Z,531.3333333333334
2022-11-03T12:18:59.017Z,502.6666666666667
2022-11-03T12:21:58.421Z,482.6666666666667
2022-11-03T12:24:59.107Z,466.3333333333333
2022-11-03T12:27:58.905Z,448
2022-11-03T12:33:59.280Z,418.3333333333333
2022-11-03T12:36:59.491Z,408.6666666666667
2022-11-03T12:39:58.447Z,395.6666666666667
2022-11-03T12:42:58.843Z,387
2022-11-03T12:45:58.902Z,366.3333333333333
2022-11-03T12:48:59.174Z,345
2022-11-03T12:52:01.710Z,341.3333333333333
2022-11-03T12:54:58.426Z,337
2022-11-03T12:57:59.137Z,329
2022-11-03T13:01:01.835Z,325
2022-11-03T13:03:58.479Z,330.6666666666667
2022-11-03T13:06:58.392Z,333.3333333333333
2022-11-03T13:09:59.611Z,329
2022-11-03T13:12:59.268Z,320.6666666666667
2022-11-03T13:15:59.478Z,310.3333333333333
2022-11-03T13:18:59.215Z,299.6666666666667
2022-11-03T13:21:59.368Z,287
2022-11-03T13:24:58.423Z,274.6666666666667
2022-11-03T13:27:58.660Z,260
2022-11-03T13:30:59.188Z,245.33333333333334
2022-11-03T13:33:59.165Z,239
2022-11-03T13:36:59.076Z,235.66666666666666
2022-11-03T13:39:59.400Z,228.66666666666666
2022-11-03T13:42:59.143Z,220.66666666666666
2022-11-03T13:45:59.078Z,211.66666666666666
2022-11-03T13:51:58.971Z,223.66666666666666
2022-11-03T14:00:59.537Z,281.3333333333333
2022-11-03T14:06:59.164Z,240.33333333333334
2022-11-03T14:10:00.858Z,219
2022-11-03T14:12:58.680Z,192.66666666666666
2022-11-03T14:15:58.915Z,174
2022-11-03T14:18:59.692Z,166
2022-11-03T14:21:58.776Z,159.33333333333334
2022-11-03T14:24:59.457Z,153.66666666666666
2022-11-03T14:27:58.726Z,149
2022-11-03T14:30:58.925Z,142
2022-11-03T14:33:59.450Z,133.66666666666666
2022-11-03T14:36:59.651Z,128
2022-11-03T14:39:59.117Z,131.33333333333334
2022-11-03T14:42:59.340Z,133
2022-11-03T14:45:59.514Z,128.33333333333334
2022-11-03T14:48:58.793Z,121.33333333333333
2022-11-03T14:51:59.407Z,114
2022-11-03T14:54:59.349Z,106.33333333333333
2022-11-03T14:57:59.344Z,96
2022-11-03T15:00:59.265Z,86.33333333333333
2022-11-03T15:03:59.204Z,79.33333333333333
2022-11-03T15:06:59.216Z,71.33333333333333
2022-11-03T15:09:58.963Z,63.333333333333336
2022-11-03T15:12:58.621Z,58.333333333333336
2022-11-03T15:15:58.945Z,53.666666666666664
2022-11-03T15:18:58.936Z,50
2022-11-03T15:21:58.718Z,47
2022-11-03T15:25:15.071Z,42.666666666666664
2022-11-03T15:27:58.811Z,37.666666666666664
2022-11-03T15:30:58.681Z,34.333333333333336
2022-11-03T15:33:58.022Z,29.666666666666668
2022-11-03T15:36:59.187Z,24.333333333333332
2022-11-03T15:40:00.142Z,20
2022-11-03T15:43:02.933Z,15.666666666666666
2022-11-03T15:45:59.455Z,11
2022-11-03T15:48:59.152Z,8
2022-11-03T15:51:59.246Z,5.333333333333333
2022-11-03T15:54:59.716Z,4
2022-11-03T15:57:59.479Z,2.3333333333333335
2022-11-03T16:00:59.662Z,1.3333333333333333
2022-11-03T16:03:59.154Z,0.3333333333333333
2022-11-03T16:07:07.812Z,0.3333333333333333
2022-11-03T16:09:59.902Z,0
2022-11-03T16:12:59.126Z,0
2022-11-03T16:15:59.065Z,0
2022-11-03T16:18:58.395Z,0
2022-11-03T16:21:58.767Z,0
2022-11-03T16:24:59.956Z,0
2022-11-03T16:27:59.428Z,0
2022-11-03T16:31:00.025Z,0
2022-11-03T16:33:59.598Z,0
2022-11-03T16:36:59.747Z,0
2022-11-03T16:39:59.716Z,0
2022-11-03T16:42:58.664Z,0
2022-11-03T16:45:59.030Z,0
2022-11-03T16:51:59.438Z,0
2022-11-03T16:54:59.334Z,0
2022-11-03T16:57:59.219Z,0
2022-11-03T17:00:59.582Z,0
2022-11-03T17:03:59.384Z,0
2022-11-03T17:06:59.188Z,0
2022-11-03T17:09:59.587Z,0
2022-11-03T17:12:58.169Z,0
2022-11-03T17:15:59.072Z,0
2022-11-03T17:18:58.720Z,0
2022-11-03T17:21:58.625Z,0
2022-11-03T17:24:58.096Z,0
2022-11-03T17:27:58.937Z,0
2022-11-03T17:30:59.246Z,0.3333333333333333
2022-11-03T17:33:58.805Z,0
2022-11-03T17:36:59.059Z,0
2022-11-03T17:39:59.744Z,0
2022-11-03T17:42:58.608Z,0
2022-11-03T17:45:58.652Z,0
2022-11-03T17:48:59.299Z,0
2022-11-03T17:51:58.612Z,0
2022-11-03T17:54:58.973Z,0
2022-11-03T17:57:59.340Z,0
2022-11-03T18:01:26.722Z,0
2022-11-03T18:03:58.620Z,0
2022-11-03T18:06:59.119Z,0
2022-11-03T18:09:58.608Z,0
2022-11-03T18:12:58.950Z,0
2022-11-03T18:15:58.409Z,0
2022-11-03T18:18:58.463Z,0
2022-11-03T18:21:59.340Z,0
2022-11-03T18:24:58.507Z,0
2022-11-03T18:27:58.726Z,0
2022-11-03T18:30:59.133Z,0
2022-11-03T18:33:59.253Z,0
2022-11-03T18:36:58.328Z,0
2022-11-03T18:39:59.054Z,0
2022-11-03T18:42:58.419Z,0
2022-11-03T18:45:59.029Z,0
2022-11-03T18:48:59.308Z,0
2022-11-03T18:52:02.848Z,0
2022-11-03T18:54:58.933Z,0.3333333333333333
2022-11-03T18:57:59.175Z,0
2022-11-03T19:00:59.626Z,0
2022-11-03T19:03:58.615Z,0
2022-11-03T19:06:58.892Z,0
2022-11-03T19:09:59.544Z,0
2022-11-03T19:12:59.485Z,0
2022-11-03T19:15:59.539Z,0
2022-11-03T19:18:59.266Z,0
2022-11-03T19:21:58.802Z,0
2022-11-03T19:24:59.519Z,0
2022-11-03T19:27:59.193Z,0
2022-11-03T19:30:58.776Z,0
2022-11-03T19:33:59.421Z,0
2022-11-03T19:36:58.896Z,0
2022-11-03T19:39:58.742Z,0
2022-11-03T19:42:58.735Z,0
2022-11-03T19:45:59.031Z,0
2022-11-03T19:48:59.194Z,0
2022-11-03T19:51:59.600Z,0
2022-11-03T19:54:58.732Z,0
2022-11-03T19:57:58.324Z,0
2022-11-03T20:01:02.816Z,0
2022-11-03T20:03:58.702Z,0
2022-11-03T20:06:58.852Z,0
2022-11-03T20:09:59.401Z,0
2022-11-03T20:12:58.772Z,0
2022-11-03T20:16:01.275Z,0
2022-11-03T20:18:59.542Z,0
2022-11-03T20:21:59.482Z,0
2022-11-03T20:24:58.532Z,0
2022-11-03T20:27:59.498Z,0
2022-11-03T20:30:59.452Z,0
2022-11-03T20:33:59.192Z,0
2022-11-03T20:37:01.436Z,0
2022-11-03T20:39:58.827Z,0
2022-11-03T20:42:58.676Z,0.3333333333333333
2022-11-03T20:45:58.392Z,0
2022-11-03T20:48:58.345Z,0
2022-11-03T20:51:59.514Z,0
2022-11-03T20:54:59.038Z,0
2022-11-03T20:57:59.081Z,0
2022-11-03T21:00:59.172Z,0
2022-11-03T21:04:00.017Z,0
2022-11-03T21:06:59.060Z,0
2022-11-03T21:09:58.834Z,0
2022-11-03T21:12:58.966Z,0
2022-11-03T21:16:23.084Z,0
2022-11-03T21:18:58.844Z,0
2022-11-03T21:21:58.868Z,0
2022-11-03T21:24:58.832Z,0
2022-11-03T21:27:58.666Z,0
2022-11-03T21:30:59.229Z,0
2022-11-03T21:33:59.370Z,0
2022-11-03T21:36:58.838Z,0
2022-11-03T21:39:58.742Z,0
2022-11-03T21:42:59.074Z,0
2022-11-03T21:45:59.319Z,0
2022-11-03T21:48:59.090Z,0
2022-11-03T21:51:59.274Z,0
2022-11-03T21:54:58.761Z,0
2022-11-03T21:57:58.698Z,0
2022-11-03T22:00:58.637Z,0
2022-11-03T22:03:58.364Z,0
2022-11-03T22:06:59.144Z,0
2022-11-03T22:09:59.984Z,0
2022-11-03T22:12:59.325Z,0
2022-11-03T22:15:59.266Z,0
2022-11-03T22:18:59.098Z,0
2022-11-03T22:21:59.054Z,0
2022-11-03T22:24:58.823Z,0
2022-11-03T22:27:59.432Z,0
2022-11-03T22:30:59.333Z,0
2022-11-03T22:33:58.872Z,0
2022-11-03T22:36:59.377Z,0
2022-11-03T22:39:59.267Z,0
2022-11-03T22:42:59.152Z,0
2022-11-03T22:45:59.386Z,0
2022-11-03T22:48:58.654Z,0
2022-11-03T22:51:59.519Z,0
2022-11-03T22:54:58.952Z,0
2022-11-03T22:57:58.721Z,0
2022-11-03T23:01:00.080Z,0
2022-11-03T23:03:58.443Z,0
2022-11-03T23:06:59.376Z,0
2022-11-03T23:09:59.383Z,0
2022-11-03T23:12:59.156Z,0
2022-11-03T23:15:58.457Z,0
2022-11-03T23:18:59.111Z,0
2022-11-03T23:21:58.398Z,0
2022-11-03T23:24:58.881Z,0
2022-11-03T23:27:58.902Z,0
2022-11-03T23:30:59.017Z,0
2022-11-03T23:36:58.729Z,0.3333333333333333
2022-11-03T23:39:58.791Z,0
2022-11-03T23:42:58.839Z,0
2022-11-03T23:45:58.845Z,0
2022-11-03T23:48:58.833Z,0
2022-11-03T23:51:59.457Z,0.3333333333333333
2022-11-03T23:54:58.786Z,0
2022-11-03T23:57:58.698Z,0
